Pays
Station

 

Conditions  météo  pour  Toledo, Metcalf Field  -  Etats-Unis    Etats-Unis

  
6 °C
    
 
 

METAR pour Toledo, Metcalf Field :

KTDZ 212253Z AUTO 24007KT 10SM CLR 06/M01 A3022 RMK AO2 SLP239 T00611011

 

Voici le bulletin pour Toledo, Metcalf Field - Etats-Unis.
 
Le bulletin a été fait il y a 9 minutes, à 22:53 UTC .
Le vent soufflait à la vitesse de 3.6 mètres par seconde de Ouest/Sud-ouest (240°).
 
La température était de 6 °C, avec un point de rosée à -1 °C.
La pression atmosphérique était de 1023 hPa.
L'humidité relative était de 60.7%.
 
Le ciel était clair.
 
La visibilité globale était de 16.1 kilomètres.
 

 
 
 

Pays :   A   B   C   D   E   F   G   H   I   J   K   L   M   N   O   P   Q   R   S   T   U   V   W   Y   Z

 

Partenaires :  Info Météo avec Met'info
Météo Marine avec MeteoMarine.net
Infos Site  |  Infos Légales  |  Crédits  |  Confidentialité
Contactez-nous  |  Ajouter aux favoris
© 2013-2018 METAR - Tous droits réservés